KRIV/RIV METAR and TAF weather

Enter ICAO airport designator
Station Type Date Time Source
KRIV METAR 2020/11/28 19:58 UTC NOAA

KRIV 281958Z AUTO 09006KT 10SM CLR 22/M11 A3015 RMK AO2 SLP203 T02171113


Station Type Date Time Source
KRIV Decoded METAR 2020/11/28 19:58 UTC NOAA

Riverside / March Air Force Base, CA, United States (KRIV) 33-54N 117-15W 468M
Nov 28, 2020 - 02:58 PM EST / 2020.11.28 1958 UTC
Wind: from the E (090 degrees) at 7 MPH (6 KT):0
Visibility: 10 mile(s):0
Sky conditions: clear
Temperature: 71.1 F (21.7 C)
Dew Point: 11.7 F (-11.3 C)
Relative Humidity: 9%
Pressure (altimeter): 30.15 in. Hg (1020 hPa)
ob: KRIV 281958Z AUTO 09006KT 10SM CLR 22/M11 A3015 RMK AO2 SLP203 T02171113
cycle: 20

Station Type Date Time Source
KRIV TAF 2020/11/28 20:09 UTC NOAA

TAF TAF KRIV 282000Z 2820/3002 06009KT 9999 SKC 510005 QNH3009INS WND 040V130
TEMPO 2820/2901 06012G18KT
BECMG 2900/2901 35009KT 9999 SKC 510005 QNH3010INS WND 310V050
BECMG 2902/2903 05009KT 9999 SCT250 510205 QNH3013INS
TEMPO 2906/2915 05010G15KT
BECMG 2917/2918 08012KT 9999 SKC 510005 QNH3004INS WND 040V120 TX23/2822Z TN02/2914Z

Example: see airport list